Time;durP1;ratioP1;P1;durP2;ratioP2;P2;SDS_P1;SDS_P2;PMS_P1;PMS_P2;Temp;Humidity;BMP_temperature;BMP_pressure;BME280_temperature;BME280_humidity;BME280_pressure;Samples;Min_cycle;Max_cycle;Signal;HPM_P1;HPM_P2
2023/09/14 00:00:50;;;;;;;3.78;3.38;;;;;;;-145.68;100.00;73745.66;10404942;28;20275;-75
2023/09/14 00:05:50;;;;;;;6.10;4.20;;;;;;;-145.68;100.00;73779.63;10384337;28;20284;-75
2023/09/14 00:10:54;;;;;;;5.28;4.20;;;;;;;-145.68;100.00;73809.63;10404860;28;20184;-74
2023/09/14 00:15:55;;;;;;;6.70;5.32;;;;;;;-145.68;100.00;73831.59;10404051;28;20227;-74
2023/09/14 00:20:57;;;;;;;8.20;7.00;;;;;;;-145.68;100.00;73851.59;10402897;28;20669;-74
2023/09/14 00:25:57;;;;;;;9.50;7.80;;;;;;;-145.68;100.00;73869.59;10403885;28;20223;-75
2023/09/14 00:30:57;;;;;;;11.95;9.27;;;;;;;-145.68;100.00;73883.59;10403945;28;20548;-74
2023/09/14 00:35:58;;;;;;;13.38;9.23;;;;;;;-145.68;100.00;73877.59;10402956;28;20262;-75
2023/09/14 00:40:58;;;;;;;15.20;10.15;;;;;;;-145.68;100.00;73895.56;10403918;28;20196;-74
2023/09/14 00:45:59;;;;;;;16.45;11.52;;;;;;;-145.68;100.00;73903.56;10385166;28;20251;-75
2023/09/14 00:50:59;;;;;;;15.55;11.88;;;;;;;-145.68;100.00;73919.56;10403739;28;20240;-75
2023/09/14 00:56:01;;;;;;;17.35;12.35;;;;;;;-145.68;100.00;73937.56;10380565;28;20224;-75
2023/09/14 01:01:03;;;;;;;17.10;11.88;;;;;;;-145.68;100.00;73939.56;10383686;28;20193;-75
2023/09/14 01:06:04;;;;;;;16.90;12.38;;;;;;;-145.68;100.00;73951.53;10401716;28;20200;-75
2023/09/14 01:11:04;;;;;;;14.98;10.93;;;;;;;-145.68;100.00;73961.53;10403125;28;20197;-75
2023/09/14 01:16:15;;;;;;;17.40;11.27;;;;;;;-145.68;100.00;73977.53;10384016;28;20235;-74
2023/09/14 01:21:37;;;;;;;16.02;10.65;;;;;;;-145.68;100.00;73973.53;10404067;28;20202;-75
2023/09/14 01:26:38;;;;;;;13.60;9.70;;;;;;;-145.68;100.00;73977.53;10386137;28;20188;-75
2023/09/14 01:31:38;;;;;;;15.30;9.25;;;;;;;-145.68;100.00;74001.53;10390687;28;20223;-75
2023/09/14 01:36:48;;;;;;;12.30;10.48;;;;;;;-145.68;100.00;74007.53;10395667;28;20224;-75
2023/09/14 01:41:54;;;;;;;10.20;8.88;;;;;;;-145.68;100.00;74013.53;10395724;28;20189;-75
2023/09/14 01:46:56;;;;;;;9.70;7.82;;;;;;;-145.68;100.00;74039.50;10392771;28;20263;-75
2023/09/14 01:51:56;;;;;;;9.90;8.90;;;;;;;-145.68;100.00;74033.50;10413431;28;20283;-75
2023/09/14 01:56:57;;;;;;;13.60;10.00;;;;;;;-145.68;100.00;74035.50;10392219;28;20220;-75
2023/09/14 02:01:57;;;;;;;14.02;11.35;;;;;;;-145.68;100.00;74045.50;10394024;28;20200;-75
2023/09/14 02:06:57;;;;;;;17.02;12.23;;;;;;;-145.68;100.00;74039.50;10410754;28;20191;-75
2023/09/14 02:11:58;;;;;;;20.50;13.25;;;;;;;-145.68;100.00;74045.50;10394575;28;20227;-75
2023/09/14 02:16:59;;;;;;;18.63;12.55;;;;;;;-145.68;100.00;74057.50;10409543;28;20575;-74
2023/09/14 02:21:59;;;;;;;13.80;10.55;;;;;;;-145.68;100.00;74057.50;10409704;28;20203;-75
2023/09/14 02:26:59;;;;;;;19.15;11.10;;;;;;;-145.68;100.00;74067.50;10390675;28;20660;-75
2023/09/14 02:32:00;;;;;;;16.65;12.10;;;;;;;-145.68;100.00;74075.50;10392814;28;20242;-76
2023/09/14 02:37:02;;;;;;;13.30;10.70;;;;;;;-145.68;100.00;74083.47;10390224;28;20213;-76
2023/09/14 02:42:03;;;;;;;11.10;9.10;;;;;;;-145.68;100.00;74093.47;10389928;28;20645;-76
2023/09/14 02:47:03;;;;;;;8.48;6.72;;;;;;;-145.68;100.00;74091.47;10389738;28;20327;-75
2023/09/14 02:52:04;;;;;;;6.93;5.60;;;;;;;-145.68;100.00;74093.47;10410216;28;20197;-76
2023/09/14 02:57:04;;;;;;;6.45;5.45;;;;;;;-145.68;100.00;74107.47;10406807;28;20310;-76
2023/09/14 03:02:04;;;;;;;7.80;5.45;;;;;;;-145.68;100.00;74109.47;10387155;28;20207;-76
2023/09/14 03:07:06;;;;;;;6.75;5.57;;;;;;;-145.68;100.00;74107.47;10392130;28;20207;-76
2023/09/14 03:12:07;;;;;;;4.05;3.30;;;;;;;-145.68;100.00;74105.47;10372514;28;20730;-76
2023/09/14 03:17:07;;;;;;;3.95;3.00;;;;;;;-145.68;100.00;74111.47;10389261;28;20220;-76
2023/09/14 03:22:08;;;;;;;2.70;2.50;;;;;;;-145.68;100.00;74111.47;10388446;28;20541;-75
2023/09/14 03:27:09;;;;;;;4.07;3.78;;;;;;;-145.68;100.00;74123.47;10391951;28;20184;-76
2023/09/14 03:32:09;;;;;;;3.78;3.47;;;;;;;-145.68;100.00;74109.47;10407014;28;20196;-75
2023/09/14 03:37:10;;;;;;;3.88;2.95;;;;;;;-145.68;100.00;74107.47;10406453;28;20577;-75
2023/09/14 03:42:11;;;;;;;2.55;2.40;;;;;;;-145.68;100.00;74109.47;10389387;28;20212;-75
2023/09/14 03:47:11;;;;;;;1.88;1.77;;;;;;;-145.68;100.00;74119.47;10374419;28;20367;-75
2023/09/14 03:52:12;;;;;;;1.92;1.83;;;;;;;-145.68;100.00;74123.47;10372789;28;20559;-75
2023/09/14 03:57:15;;;;;;;1.70;1.60;;;;;;;-145.68;100.00;74131.47;10405389;28;20224;-75
2023/09/14 04:02:16;;;;;;;1.65;1.50;;;;;;;-145.68;100.00;74133.47;10406581;28;20188;-75
2023/09/14 04:07:17;;;;;;;2.08;1.88;;;;;;;-145.68;100.00;74145.47;10390484;28;20250;-75
2023/09/14 04:12:17;;;;;;;2.40;2.25;;;;;;;-145.68;100.00;74153.47;10411998;28;20199;-75
2023/09/14 04:17:17;;;;;;;3.03;2.83;;;;;;;-145.68;100.00;74159.44;10387853;28;20250;-75
2023/09/14 04:22:18;;;;;;;4.10;3.65;;;;;;;-145.68;100.00;74181.44;10387882;28;20184;-75
2023/09/14 04:27:20;;;;;;;4.30;3.85;;;;;;;-145.68;100.00;74201.44;10390018;28;20191;-75
2023/09/14 04:32:21;;;;;;;5.00;4.50;;;;;;;-145.68;100.00;74199.44;10387557;28;20611;-75
2023/09/14 04:37:21;;;;;;;4.78;4.28;;;;;;;-145.68;100.00;74203.44;10402682;28;20262;-75
2023/09/14 04:42:22;;;;;;;7.35;4.95;;;;;;;-145.68;100.00;74245.41;10402320;28;20651;-75
2023/09/14 04:47:22;;;;;;;8.25;6.53;;;;;;;-145.68;100.00;74271.41;10384995;28;20232;-75
2023/09/14 04:52:23;;;;;;;9.93;7.28;;;;;;;-145.68;100.00;74289.41;10386041;28;20199;-75
2023/09/14 04:57:24;;;;;;;9.75;7.90;;;;;;;-145.68;100.00;74299.38;10402273;28;20304;-75
2023/09/14 05:02:27;;;;;;;15.65;9.90;;;;;;;-145.68;100.00;74323.38;10378943;28;20200;-75
2023/09/14 05:07:27;;;;;;;20.80;11.90;;;;;;;-145.68;100.00;74335.38;10390489;28;20213;-75
2023/09/14 05:12:28;;;;;;;18.75;12.20;;;;;;;-145.68;100.00;74333.38;10409426;28;20200;-75
2023/09/14 05:17:30;;;;;;;19.90;12.15;;;;;;;-145.68;100.00;74333.38;10392665;28;20223;-75
2023/09/14 05:22:30;;;;;;;21.63;12.70;;;;;;;-145.68;100.00;74335.38;10394005;28;20558;-74
2023/09/14 05:27:38;;;;;;;22.65;13.02;;;;;;;-145.68;100.00;74329.38;10394121;28;20710;-74
2023/09/14 05:32:40;;;;;;;18.33;11.82;;;;;;;-145.68;100.00;74331.38;10398036;28;20192;-75
2023/09/14 05:37:41;;;;;;;18.20;12.02;;;;;;;-145.68;100.00;74337.38;10392470;28;20507;-75
2023/09/14 05:42:41;;;;;;;20.67;11.95;;;;;;;-145.68;100.00;74327.38;10401543;28;20185;-74
2023/09/14 05:47:42;;;;;;;20.58;10.45;;;;;;;-145.68;100.00;74331.38;10375649;28;20712;-74
2023/09/14 05:52:43;;;;;;;22.63;11.10;;;;;;;-145.68;100.00;74335.38;10395829;28;20192;-74
2023/09/14 05:57:43;;;;;;;15.25;11.38;;;;;;;-145.68;100.00;74327.38;10395139;28;20224;-75
2023/09/14 06:02:44;;;;;;;17.15;10.88;;;;;;;-145.68;100.00;74317.38;10392859;28;20196;-75
2023/09/14 06:07:47;;;;;;;18.20;10.25;;;;;;;-145.68;100.00;74329.38;10374209;28;20193;-74
2023/09/14 06:12:49;;;;;;;15.95;9.52;;;;;;;-145.68;100.00;74341.38;10395035;28;20197;-74
2023/09/14 06:17:49;;;;;;;14.75;10.48;;;;;;;-145.68;100.00;74325.38;10409107;28;20238;-75
2023/09/14 06:22:50;;;;;;;15.05;10.40;;;;;;;-145.68;100.00;74323.38;10407850;28;20610;-74
2023/09/14 06:27:50;;;;;;;15.02;10.95;;;;;;;-145.68;100.00;74319.38;10408057;28;20254;-74
2023/09/14 06:32:51;;;;;;;16.33;11.32;;;;;;;-145.68;100.00;74319.38;10411624;28;20181;-75
2023/09/14 06:37:52;;;;;;;16.58;11.55;;;;;;;-145.68;100.00;74309.38;10408323;28;20236;-75
2023/09/14 06:42:52;;;;;;;14.60;10.68;;;;;;;-145.68;100.00;74299.38;10413402;28;20189;-75
2023/09/14 06:47:53;;;;;;;17.38;10.73;;;;;;;-145.68;100.00;74295.41;10407854;28;20232;-75
2023/09/14 06:52:53;;;;;;;12.45;10.45;;;;;;;-145.68;100.00;74283.41;10411408;28;20206;-75
2023/09/14 06:57:54;;;;;;;13.75;9.93;;;;;;;-145.68;100.00;74271.41;10401600;28;20240;-75
2023/09/14 07:02:54;;;;;;;12.93;10.05;;;;;;;-145.68;100.00;74253.41;10406695;28;20193;-74
2023/09/14 07:07:55;;;;;;;12.70;7.90;;;;;;;-145.68;100.00;74247.41;10405573;28;20195;-75
2023/09/14 07:12:55;;;;;;;11.38;8.32;;;;;;;-145.68;100.00;74233.41;10405575;28;20703;-75
2023/09/14 07:17:56;;;;;;;12.20;8.63;;;;;;;-145.68;100.00;74227.41;10417768;28;20278;-75
2023/09/14 07:22:57;;;;;;;10.10;8.60;;;;;;;-145.68;100.00;74245.41;10414183;28;20192;-75
2023/09/14 07:27:57;;;;;;;8.05;6.85;;;;;;;-145.68;100.00;74243.41;10402955;28;20188;-74
2023/09/14 07:32:58;;;;;;;8.98;6.85;;;;;;;-145.68;100.00;74235.41;10421974;28;20201;-74
2023/09/14 07:38:08;;;;;;;8.55;7.65;;;;;;;-145.68;100.00;74205.44;10414916;28;20216;-75
2023/09/14 07:43:09;;;;;;;13.45;9.65;;;;;;;-145.68;100.00;74183.44;10430898;28;20188;-74
2023/09/14 07:48:10;;;;;;;12.38;9.93;;;;;;;-145.68;100.00;74175.44;10428111;28;20290;-74
2023/09/14 07:53:13;;;;;;;11.38;9.93;;;;;;;-145.68;100.00;74175.44;10423206;28;20184;-74
2023/09/14 07:58:16;;;;;;;15.75;11.20;;;;;;;-145.68;100.00;74165.44;10403276;28;20675;-74
2023/09/14 08:03:17;;;;;;;15.52;11.05;;;;;;;-145.68;100.00;74165.44;10439991;28;20203;-74
2023/09/14 08:08:17;;;;;;;16.40;11.05;;;;;;;-145.68;100.00;74161.44;10410118;28;20193;-75
2023/09/14 08:13:18;;;;;;;12.98;10.98;;;;;;;-145.68;100.00;74159.44;10415920;28;20197;-74
2023/09/14 08:18:19;;;;;;;12.77;11.13;;;;;;;-145.68;100.00;74163.44;10408850;28;20754;-74
2023/09/14 08:23:20;;;;;;;12.73;10.35;;;;;;;-145.68;100.00;74129.47;10403944;28;20188;-75
2023/09/14 08:28:20;;;;;;;14.43;10.65;;;;;;;-145.68;100.00;74115.47;10382767;28;20196;-74
2023/09/14 08:33:21;;;;;;;14.57;10.38;;;;;;;-145.68;100.00;74091.47;10402787;28;20238;-75
2023/09/14 08:38:23;;;;;;;17.35;11.02;;;;;;;-145.68;100.00;74115.47;10401712;28;20649;-74
2023/09/14 08:43:24;;;;;;;16.15;11.40;;;;;;;-145.68;100.00;74129.47;10402598;28;20672;-74
2023/09/14 08:48:26;;;;;;;15.80;10.57;;;;;;;-145.68;100.00;74103.47;10401994;28;20585;-74
2023/09/14 08:53:27;;;;;;;17.05;11.48;;;;;;;-145.68;100.00;74113.47;10387634;28;20744;-75
2023/09/14 08:58:28;;;;;;;15.32;12.43;;;;;;;-145.68;100.00;74149.47;10402156;28;20199;-76
2023/09/14 09:03:28;;;;;;;13.18;11.10;;;;;;;-145.68;100.00;74121.47;10384956;28;20192;-75
2023/09/14 09:08:29;;;;;;;14.57;10.73;;;;;;;-145.68;100.00;74091.47;10404849;28;20196;-75
2023/09/14 09:13:41;;;;;;;12.77;10.70;;;;;;;-145.68;100.00;74091.47;10401762;28;20204;-75
2023/09/14 09:19:01;;;;;;;13.50;10.20;;;;;;;-145.68;100.00;74101.47;10402192;28;20196;-76
2023/09/14 09:24:06;;;;;;;17.67;11.68;;;;;;;-145.68;100.00;74095.47;10385629;28;20206;-75
2023/09/14 09:29:17;;;;;;;12.30;10.13;;;;;;;-145.68;100.00;74085.47;10403811;28;20193;-75
2023/09/14 09:34:24;;;;;;;16.75;10.18;;;;;;;-145.68;100.00;74043.50;10401686;28;20217;-75
2023/09/14 09:39:25;;;;;;;13.85;10.05;;;;;;;-145.68;100.00;74017.50;10402094;28;20284;-76
2023/09/14 09:44:27;;;;;;;14.38;8.95;;;;;;;-145.68;100.00;73931.56;10401331;28;20573;-75
2023/09/14 09:49:29;;;;;;;11.40;9.25;;;;;;;-145.68;100.00;73919.56;10409820;28;20247;-75
2023/09/14 09:54:30;;;;;;;16.58;9.93;;;;;;;-145.68;100.00;73913.56;10409018;28;20307;-75
2023/09/14 09:59:31;;;;;;;12.50;9.07;;;;;;;-145.68;100.00;73891.56;10407518;28;20197;-76
2023/09/14 10:04:32;;;;;;;13.98;8.07;;;;;;;-145.68;100.00;73903.56;10390877;28;20189;-75
2023/09/14 10:09:34;;;;;;;16.45;10.10;;;;;;;-145.68;100.00;73917.56;10410949;28;20698;-75
2023/09/14 10:14:35;;;;;;;16.17;10.00;;;;;;;-145.68;100.00;73909.56;10373948;28;20274;-75
2023/09/14 10:19:38;;;;;;;11.38;8.25;;;;;;;-145.68;100.00;73831.59;10390968;28;20196;-75
2023/09/14 10:24:39;;;;;;;12.02;8.65;;;;;;;-145.68;89.82;73787.63;10411281;28;20196;-76
2023/09/14 10:29:41;;;;;;;10.52;8.40;;;;;;;-145.68;92.86;73783.63;10390371;28;20573;-74
2023/09/14 10:34:41;;;;;;;14.23;8.60;;;;;;;-145.68;97.40;73971.53;10407290;28;20220;-74
2023/09/14 10:39:44;;;;;;;9.68;8.02;;;;;;;-145.68;93.72;73837.59;10405377;28;20605;-75
2023/09/14 10:44:44;;;;;;;10.15;7.93;;;;;;;-145.68;86.93;73761.66;10411007;28;20645;-75
2023/09/14 10:49:45;;;;;;;7.72;5.75;;;;;;;-145.68;85.70;73769.63;10402301;28;20472;-75
2023/09/14 10:54:46;;;;;;;6.43;5.07;;;;;;;-145.68;87.64;73691.69;10388811;28;20230;-74
2023/09/14 10:59:48;;;;;;;6.78;5.20;;;;;;;-145.68;83.40;73717.66;10374508;28;20338;-74
2023/09/14 11:05:11;;;;;;;7.28;4.85;;;;;;;-145.68;77.95;73723.66;10389961;28;20539;-74
2023/09/14 11:10:17;;;;;;;8.45;5.07;;;;;;;-145.68;82.91;73779.63;10406206;28;20610;-74
2023/09/14 11:15:21;;;;;;;7.53;5.45;;;;;;;-145.68;80.22;73783.63;10401459;28;20289;-75
2023/09/14 11:20:22;;;;;;;9.43;5.63;;;;;;;-145.68;76.63;73707.69;10404009;28;20192;-74
2023/09/14 11:25:36;;;;;;;8.25;5.57;;;;;;;-145.68;74.33;73699.69;10406980;28;20635;-74
2023/09/14 11:30:43;;;;;;;7.50;4.93;;;;;;;-145.68;73.50;73637.72;10385312;28;20207;-74
2023/09/14 11:35:47;;;;;;;8.57;5.15;;;;;;;-145.68;71.03;73597.75;10404203;28;20319;-74
2023/09/14 11:40:48;;;;;;;10.43;5.47;;;;;;;-145.68;68.46;73571.75;10406009;28;20642;-74
2023/09/14 11:45:55;;;;;;;8.98;4.88;;;;;;;-145.68;65.86;73533.78;10407815;28;20291;-74
2023/09/14 11:50:56;;;;;;;8.70;4.93;;;;;;;-145.68;65.83;73527.78;10405844;28;20331;-75
2023/09/14 11:55:57;;;;;;;6.57;4.18;;;;;;;-145.68;66.48;73543.78;10400630;28;20564;-74
2023/09/14 12:00:57;;;;;;;7.88;4.40;;;;;;;-145.68;65.17;73477.81;10404299;28;20767;-75
2023/09/14 12:05:58;;;;;;;11.95;3.67;;;;;;;-145.68;64.48;73475.81;10402804;28;20204;-74
2023/09/14 12:10:58;;;;;;;12.60;3.65;;;;;;;-145.68;65.06;73599.72;10402302;28;20196;-74
2023/09/14 12:16:00;;;;;;;11.35;3.70;;;;;;;-145.68;63.93;73519.78;10400992;28;20232;-74
2023/09/14 12:21:00;;;;;;;8.00;3.67;;;;;;;-145.68;60.69;73453.81;10401540;28;20200;-75
2023/09/14 12:26:00;;;;;;;5.35;2.83;;;;;;;-145.68;58.87;73395.84;10383665;28;20276;-75
2023/09/14 12:31:01;;;;;;;7.43;3.05;;;;;;;-145.68;57.69;73471.81;10400807;28;20208;-74
2023/09/14 12:36:01;;;;;;;9.35;3.47;;;;;;;-145.68;60.97;73559.75;10400371;28;20586;-74
2023/09/14 12:41:02;;;;;;;7.00;3.25;;;;;;;-145.68;60.41;73451.81;10400876;28;20244;-74
2023/09/14 12:46:04;;;;;;;9.20;4.40;;;;;;;-145.68;59.44;73521.78;10382250;28;20562;-74
2023/09/14 12:51:05;;;;;;;4.85;2.97;;;;;;;-145.68;60.91;73419.84;10400472;28;20240;-74
2023/09/14 12:56:06;;;;;;;6.15;3.53;;;;;;;-145.68;58.90;73437.84;10379105;28;20699;-75
2023/09/14 13:01:08;;;;;;;11.55;3.65;;;;;;;-145.68;57.69;73329.91;10401097;28;20192;-75
2023/09/14 13:06:09;;;;;;;11.88;4.05;;;;;;;-145.68;58.33;73349.88;10382541;28;20677;-75
2023/09/14 13:11:20;;;;;;;6.18;3.80;;;;;;;-145.68;57.70;73369.88;10382893;28;20283;-74
2023/09/14 13:16:21;;;;;;;11.25;4.28;;;;;;;-145.68;57.80;73377.88;10410245;28;20220;-75
2023/09/14 13:21:22;;;;;;;8.65;4.70;;;;;;;-145.68;59.16;73401.84;10402690;28;20660;-74
2023/09/14 13:26:23;;;;;;;9.07;4.53;;;;;;;-145.68;60.61;73443.84;10404613;28;20283;-74
2023/09/14 13:31:23;;;;;;;7.93;3.35;;;;;;;-145.68;60.85;73447.81;10409539;28;20192;-75
2023/09/14 13:36:24;;;;;;;6.93;4.20;;;;;;;-145.68;58.73;73393.84;10412216;28;20224;-74
2023/09/14 13:41:24;;;;;;;5.20;3.95;;;;;;;-145.68;56.47;73293.94;10412876;28;20188;-75
2023/09/14 13:46:24;;;;;;;5.93;3.70;;;;;;;-145.68;58.69;73357.88;10408432;28;20222;-75
2023/09/14 13:51:25;;;;;;;5.18;3.10;;;;;;;-145.68;55.21;73255.94;10450740;28;20640;-74
2023/09/14 13:56:25;;;;;;;5.00;3.20;;;;;;;-145.68;56.30;73293.94;10452712;28;20719;-75
2023/09/14 14:01:26;;;;;;;7.72;3.45;;;;;;;-145.68;58.16;73473.81;10432621;28;20184;-74
2023/09/14 14:06:26;;;;;;;6.70;3.63;;;;;;;-145.68;59.23;73443.84;10450005;28;20262;-74
2023/09/14 14:11:27;;;;;;;8.88;3.85;;;;;;;-145.68;60.11;73447.81;10453587;28;20204;-75
2023/09/14 14:16:27;;;;;;;5.63;3.90;;;;;;;-145.68;57.14;73365.88;10451675;28;20228;-74
2023/09/14 14:21:29;;;;;;;7.15;3.90;;;;;;;-145.68;55.98;73225.97;10449769;28;20200;-75
2023/09/14 14:26:29;;;;;;;5.60;3.40;;;;;;;-145.68;50.92;73012.13;10460835;28;20203;-74
2023/09/14 14:31:30;;;;;;;3.25;2.55;;;;;;;-145.68;47.29;72800.28;10450533;28;20196;-75
2023/09/14 14:36:32;;;;;;;4.65;2.95;;;;;;;-145.68;45.28;72740.31;10456230;28;20298;-75
2023/09/14 14:41:32;;;;;;;7.40;2.83;;;;;;;-145.68;44.20;72680.38;10448775;28;20600;-75
2023/09/14 14:46:33;;;;;;;9.82;2.85;;;;;;;-145.68;41.26;72458.56;10450046;28;20188;-75
2023/09/14 14:51:33;;;;;;;4.88;2.70;;;;;;;-145.68;37.84;72276.72;10433194;28;20674;-75
2023/09/14 14:56:34;;;;;;;4.68;2.53;;;;;;;-145.68;37.84;72306.69;10447237;28;20223;-75
2023/09/14 15:01:34;;;;;;;6.37;2.73;;;;;;;-145.68;37.71;72376.63;10448249;28;20196;-75
2023/09/14 15:06:35;;;;;;;4.60;2.58;;;;;;;-145.68;40.17;72502.53;10436622;28;20478;-76
2023/09/14 15:11:35;;;;;;;3.22;2.17;;;;;;;-145.68;44.92;72838.25;10450439;28;20608;-75
2023/09/14 15:16:36;;;;;;;3.22;2.50;;;;;;;-145.68;45.73;72944.16;10437078;28;20212;-74
2023/09/14 15:21:37;;;;;;;6.50;2.80;;;;;;;-145.68;49.50;73211.97;10447296;28;20261;-74
2023/09/14 15:26:37;;;;;;;6.22;2.88;;;;;;;-145.68;50.53;73174.00;10446834;28;20257;-75
2023/09/14 15:31:39;;;;;;;8.93;3.25;;;;;;;-145.68;46.93;72890.22;10448916;28;20186;-75
2023/09/14 15:36:39;;;;;;;6.35;3.42;;;;;;;-145.68;43.46;72576.47;10446248;28;20297;-75
2023/09/14 15:41:40;;;;;;;6.13;2.77;;;;;;;-145.68;39.78;72416.59;10459151;28;20776;-75
2023/09/14 15:46:40;;;;;;;17.42;3.50;;;;;;;-145.68;40.86;72604.44;10454912;28;20825;-74
2023/09/14 15:51:41;;;;;;;6.68;2.70;;;;;;;-145.68;41.52;72632.41;10450193;28;20202;-74
2023/09/14 15:56:41;;;;;;;4.53;2.30;;;;;;;-145.68;39.46;72506.50;10444582;28;20216;-74
2023/09/14 16:01:43;;;;;;;4.72;2.80;;;;;;;-145.68;44.67;72868.22;10446091;28;20261;-75
2023/09/14 16:06:48;;;;;;;3.85;2.80;;;;;;;-145.68;43.38;72746.31;10462402;28;20253;-75
2023/09/14 16:11:49;;;;;;;6.53;2.97;;;;;;;-145.68;41.44;72612.44;10461760;28;20191;-75
2023/09/14 16:16:50;;;;;;;5.20;2.83;;;;;;;-145.68;42.54;72764.31;10468153;28;20742;-74
2023/09/14 16:21:50;;;;;;;3.80;2.75;;;;;;;-145.68;45.80;73004.13;10474897;28;20194;-75
2023/09/14 16:26:50;;;;;;;8.48;3.45;;;;;;;-145.68;47.75;73136.03;10451020;28;20701;-75
2023/09/14 16:31:51;;;;;;;5.70;2.90;;;;;;;-145.68;49.30;73261.94;10451759;28;20605;-74
2023/09/14 16:36:51;;;;;;;13.48;3.63;;;;;;;-145.68;53.76;73385.88;10444728;28;20215;-74
2023/09/14 16:41:51;;;;;;;5.22;2.60;;;;;;;-145.68;54.17;73383.88;10443712;28;20192;-75
2023/09/14 16:46:52;;;;;;;8.20;3.72;;;;;;;-145.68;56.78;73477.81;10451935;28;20228;-74
2023/09/14 16:51:53;;;;;;;5.40;3.28;;;;;;;-145.68;61.01;73649.72;10446356;28;20299;-75
2023/09/14 16:56:55;;;;;;;4.97;3.00;;;;;;;-145.68;70.04;73699.69;10445028;28;20626;-74
2023/09/14 17:01:55;;;;;;;5.78;3.20;;;;;;;-145.68;83.62;73827.59;10451003;28;20200;-74
2023/09/14 17:06:56;;;;;;;6.22;3.53;;;;;;;-145.68;96.41;73923.56;10455236;28;20237;-74
2023/09/14 17:11:56;;;;;;;7.07;4.00;;;;;;;-145.68;100.00;73947.56;10453525;28;20207;-74
2023/09/14 17:16:57;;;;;;;8.23;3.92;;;;;;;-145.68;100.00;74003.53;10455961;28;20226;-74
2023/09/14 17:21:57;;;;;;;9.02;4.97;;;;;;;-145.68;100.00;74071.50;10456228;28;20203;-74
2023/09/14 17:26:57;;;;;;;7.72;3.80;;;;;;;-145.68;100.00;74085.47;10432826;28;20233;-75
2023/09/14 17:31:58;;;;;;;7.07;4.47;;;;;;;-145.68;100.00;74113.47;10455259;28;20200;-75
2023/09/14 17:36:58;;;;;;;5.57;3.95;;;;;;;-145.68;100.00;74155.44;10454118;28;20215;-75
2023/09/14 17:41:59;;;;;;;5.13;3.88;;;;;;;-145.68;100.00;74175.44;10456717;28;20655;-75
2023/09/14 17:46:59;;;;;;;11.38;4.43;;;;;;;-145.68;100.00;74203.44;10449276;28;20361;-75
2023/09/14 17:52:00;;;;;;;9.90;4.90;;;;;;;-145.68;100.00;74235.41;10416709;28;20203;-75
2023/09/14 17:57:01;;;;;;;9.43;4.97;;;;;;;-145.68;100.00;74287.41;10451008;28;20215;-75
2023/09/14 18:02:03;;;;;;;7.25;5.32;;;;;;;-145.68;100.00;74311.38;10453258;28;20664;-74
2023/09/14 18:07:03;;;;;;;7.90;4.45;;;;;;;-145.68;100.00;74329.38;10450529;28;20206;-75
2023/09/14 18:12:04;;;;;;;8.05;5.38;;;;;;;-145.68;100.00;74347.38;10449695;28;20215;-75
2023/09/14 18:17:04;;;;;;;7.05;4.93;;;;;;;-145.68;100.00;74371.38;10448912;28;20212;-75
2023/09/14 18:22:07;;;;;;;10.82;5.60;;;;;;;-145.68;100.00;74399.34;10451820;28;20533;-75
2023/09/14 18:27:07;;;;;;;7.07;5.28;;;;;;;-145.68;100.00;74407.34;10448823;28;20189;-75
2023/09/14 18:32:09;;;;;;;9.57;5.43;;;;;;;-145.68;100.00;74421.34;10448762;28;20197;-74
2023/09/14 18:37:10;;;;;;;7.47;5.45;;;;;;;-145.68;100.00;74445.34;10450066;28;20305;-75
2023/09/14 18:42:11;;;;;;;10.63;6.27;;;;;;;-145.68;100.00;74475.31;10449007;28;20565;-75
2023/09/14 18:47:11;;;;;;;8.60;6.13;;;;;;;-145.68;100.00;74493.31;10443059;28;20228;-75
2023/09/14 18:52:13;;;;;;;8.33;5.10;;;;;;;-145.68;100.00;74509.31;10405644;28;20223;-75
2023/09/14 18:57:13;;;;;;;8.13;6.00;;;;;;;-145.68;100.00;74517.31;10407913;28;20678;-75
2023/09/14 19:02:13;;;;;;;8.27;6.47;;;;;;;-145.68;100.00;74545.31;10413647;28;20226;-74
2023/09/14 19:07:14;;;;;;;14.73;6.83;;;;;;;-145.68;100.00;74561.28;10405960;28;20208;-75
2023/09/14 19:12:16;;;;;;;8.40;5.90;;;;;;;-145.68;100.00;74565.28;10402226;28;20193;-74
2023/09/14 19:17:17;;;;;;;7.83;6.30;;;;;;;-145.68;100.00;74571.28;10408631;28;20193;-74
2023/09/14 19:22:17;;;;;;;11.30;6.50;;;;;;;-145.68;100.00;74589.28;10405499;28;20204;-75
2023/09/14 19:27:17;;;;;;;8.93;5.70;;;;;;;-145.68;100.00;74603.28;10409708;28;20672;-75
2023/09/14 19:32:18;;;;;;;8.30;5.57;;;;;;;-145.68;100.00;74609.28;10429593;28;20234;-74
2023/09/14 19:37:18;;;;;;;7.77;5.07;;;;;;;-145.68;100.00;74611.28;10425261;28;20189;-75
2023/09/14 19:42:18;;;;;;;10.93;5.70;;;;;;;-145.68;100.00;74625.28;10426709;28;20193;-75
2023/09/14 19:47:20;;;;;;;6.03;5.23;;;;;;;-145.68;100.00;74645.28;10439897;28;20227;-75
2023/09/14 19:52:21;;;;;;;7.87;5.60;;;;;;;-145.68;100.00;74653.25;10445315;28;20188;-75
2023/09/14 19:57:21;;;;;;;9.20;5.17;;;;;;;-145.68;100.00;74653.25;10445202;28;20188;-75
2023/09/14 20:02:21;;;;;;;7.73;4.87;;;;;;;-145.68;100.00;74669.25;10445582;28;20275;-75
2023/09/14 20:07:22;;;;;;;5.50;5.00;;;;;;;-145.68;100.00;74677.25;10443382;28;20227;-75
2023/09/14 20:12:22;;;;;;;7.53;5.47;;;;;;;-145.68;100.00;74693.25;10448428;28;20198;-76
2023/09/14 20:17:23;;;;;;;7.40;5.30;;;;;;;-145.68;100.00;74693.25;10424698;28;20192;-75
2023/09/14 20:22:23;;;;;;;6.93;5.03;;;;;;;-145.68;100.00;74699.25;10448058;28;20250;-75
2023/09/14 20:27:24;;;;;;;8.90;5.60;;;;;;;-145.68;100.00;74715.25;10426797;28;20292;-75
2023/09/14 20:32:26;;;;;;;8.20;5.13;;;;;;;-145.68;100.00;74717.25;10444798;28;20549;-75
2023/09/14 20:37:26;;;;;;;6.57;4.43;;;;;;;-145.68;100.00;74723.25;10448290;28;20180;-74
2023/09/14 20:42:27;;;;;;;5.80;4.77;;;;;;;-145.68;100.00;74731.25;10427148;28;20195;-75
2023/09/14 20:47:27;;;;;;;6.60;4.90;;;;;;;-145.68;100.00;74741.25;10443968;28;20278;-75
2023/09/14 20:52:27;;;;;;;8.47;5.10;;;;;;;-145.68;100.00;74747.25;10444895;28;20200;-74
2023/09/14 20:57:30;;;;;;;5.47;4.93;;;;;;;-145.68;100.00;74753.22;10450997;28;20671;-74
2023/09/14 21:02:30;;;;;;;5.77;4.37;;;;;;;-145.68;100.00;74763.22;10444720;28;20200;-74
2023/09/14 21:07:31;;;;;;;7.90;5.37;;;;;;;-145.68;100.00;74777.22;10443775;28;20223;-74
2023/09/14 21:12:31;;;;;;;9.77;4.10;;;;;;;-145.68;100.00;74781.22;10450007;28;20215;-74
2023/09/14 21:17:32;;;;;;;6.13;4.60;;;;;;;-145.68;100.00;74777.22;10448694;28;20243;-74
2023/09/14 21:22:34;;;;;;;6.47;4.63;;;;;;;-145.68;100.00;74789.22;10444373;28;20191;-73
2023/09/14 21:27:36;;;;;;;5.03;4.40;;;;;;;-145.68;100.00;74787.22;10426307;28;20227;-74
2023/09/14 21:32:36;;;;;;;10.40;4.97;;;;;;;-145.68;100.00;74799.22;10451575;28;20219;-73
2023/09/14 21:37:36;;;;;;;6.67;5.10;;;;;;;-145.68;100.00;74797.22;10443747;28;20234;-74
2023/09/14 21:42:37;;;;;;;9.67;4.90;;;;;;;-145.68;100.00;74809.22;10450918;28;20222;-74
2023/09/14 21:47:38;;;;;;;6.77;4.63;;;;;;;-145.68;100.00;74811.22;10448448;28;20224;-74
2023/09/14 21:52:38;;;;;;;5.23;4.33;;;;;;;-145.68;100.00;74813.22;10458434;28;20249;-75
2023/09/14 21:57:38;;;;;;;6.83;5.07;;;;;;;-145.68;100.00;74813.22;10451629;28;20250;-74
2023/09/14 22:02:39;;;;;;;6.03;4.50;;;;;;;-145.68;100.00;74823.22;10454679;28;20184;-75
2023/09/14 22:07:39;;;;;;;6.47;4.70;;;;;;;-145.68;100.00;74825.22;10432519;28;20243;-74
2023/09/14 22:12:40;;;;;;;4.33;3.83;;;;;;;-145.68;100.00;74819.22;10457520;28;20542;-75
2023/09/14 22:17:44;;;;;;;7.13;3.97;;;;;;;-145.68;100.00;74821.22;10456935;28;20224;-75
2023/09/14 22:22:45;;;;;;;5.63;4.20;;;;;;;-145.68;100.00;74837.22;10449435;28;20200;-74
2023/09/14 22:27:46;;;;;;;7.73;4.30;;;;;;;-145.68;100.00;74843.22;10445846;28;20353;-74